Time;durP1;ratioP1;P1;durP2;ratioP2;P2;SDS_P1;SDS_P2;PMS_P1;PMS_P2;Temp;Humidity;BMP_temperature;BMP_pressure;BME280_temperature;BME280_humidity;BME280_pressure;Samples;Min_cycle;Max_cycle;Signal;HPM_P1;HPM_P2
2022/06/28 00:00:00;;;;;;;;;;;15.20;85.40;;;;;;5008636;28;19913;-83
2022/06/28 00:02:25;;;;;;;;;;;15.10;85.30;;;;;;4992458;28;19945;-84
2022/06/28 00:04:51;;;;;;;;;;;15.00;85.30;;;;;;4990788;28;19940;-83
2022/06/28 00:07:17;;;;;;;;;;;15.10;85.30;;;;;;5010889;28;19956;-82
2022/06/28 00:09:42;;;;;;;;;;;15.00;85.30;;;;;;5005090;28;20303;-83
2022/06/28 00:12:08;;;;;;;;;;;15.10;85.00;;;;;;4992978;28;19925;-84
2022/06/28 00:17:18;;;;;;;;;;;15.00;85.40;;;;;;5024653;28;20016;-82
2022/06/28 00:19:43;;;;;;;;;;;15.00;85.20;;;;;;5007605;28;19989;-83
2022/06/28 00:22:09;;;;;;;;;;;15.10;84.90;;;;;;4995485;28;19917;-83
2022/06/28 00:24:34;;;;;;;;;;;15.00;85.10;;;;;;5010972;28;20143;-83
2022/06/28 00:27:00;;;;;;;;;;;15.00;85.00;;;;;;5011801;28;19917;-83
2022/06/28 00:29:26;;;;;;;;;;;15.00;85.10;;;;;;5013432;28;19921;-82
2022/06/28 00:31:51;;;;;;;;;;;15.00;85.00;;;;;;5011381;28;19921;-82
2022/06/28 00:34:17;;;;;;;;;;;14.90;84.90;;;;;;5012593;28;19914;-83
2022/06/28 00:36:42;;;;;;;;;;;14.90;85.20;;;;;;4993681;28;19943;-83
2022/06/28 00:39:08;;;;;;;;;;;14.90;85.10;;;;;;4995595;28;19913;-83
2022/06/28 00:41:34;;;;;;;;;;;14.90;85.10;;;;;;4993742;28;19914;-83
2022/06/28 00:44:00;;;;;;;;;;;14.90;85.00;;;;;;4993139;28;19917;-82
2022/06/28 00:46:25;;;;;;;;;;;14.90;85.10;;;;;;4992065;28;19925;-83
2022/06/28 00:48:51;;;;;;;;;;;14.90;85.00;;;;;;5018885;28;19917;-82
2022/06/28 00:51:17;;;;;;;;;;;14.80;84.90;;;;;;4991269;28;19918;-83
2022/06/28 00:53:42;;;;;;;;;;;14.80;85.30;;;;;;5013680;28;19952;-83
2022/06/28 00:56:08;;;;;;;;;;;14.80;85.10;;;;;;5011746;28;19917;-82
2022/06/28 00:58:33;;;;;;;;;;;14.80;85.20;;;;;;5013116;28;19920;-82
2022/06/28 01:00:58;;;;;;;;;;;14.80;85.20;;;;;;5016479;28;20332;-83
2022/06/28 01:03:24;;;;;;;;;;;14.70;85.30;;;;;;4998498;28;19917;-82
2022/06/28 01:05:51;;;;;;;;;;;14.80;85.20;;;;;;4995385;28;19967;-83
2022/06/28 01:08:17;;;;;;;;;;;14.70;84.80;;;;;;4998353;28;19917;-82
2022/06/28 01:10:42;;;;;;;;;;;14.70;84.70;;;;;;5015146;28;19914;-81
2022/06/28 01:13:09;;;;;;;;;;;14.70;84.60;;;;;;5009230;28;19921;-82
2022/06/28 01:15:35;;;;;;;;;;;14.60;84.50;;;;;;5016476;28;19930;-82
2022/06/28 01:18:02;;;;;;;;;;;14.60;84.70;;;;;;5027096;28;19914;-83
2022/06/28 01:20:27;;;;;;;;;;;14.60;84.90;;;;;;5005287;28;20061;-83
2022/06/28 01:22:53;;;;;;;;;;;14.50;85.10;;;;;;5001517;28;20016;-82
2022/06/28 01:25:19;;;;;;;;;;;14.50;85.20;;;;;;4998196;28;20060;-82
2022/06/28 01:27:45;;;;;;;;;;;14.50;85.10;;;;;;4992759;28;20020;-82
2022/06/28 01:30:11;;;;;;;;;;;14.40;85.20;;;;;;4994834;28;19924;-83
2022/06/28 01:32:36;;;;;;;;;;;14.40;85.00;;;;;;4993131;28;19914;-82
2022/06/28 01:35:03;;;;;;;;;;;14.40;85.30;;;;;;4992765;28;19914;-83
2022/06/28 01:37:28;;;;;;;;;;;14.30;85.20;;;;;;5012596;28;19925;-83
2022/06/28 01:39:54;;;;;;;;;;;14.30;85.50;;;;;;5012445;28;19976;-82
2022/06/28 01:42:19;;;;;;;;;;;14.30;85.30;;;;;;4997257;28;19980;-83
2022/06/28 01:44:45;;;;;;;;;;;14.30;85.20;;;;;;5012347;28;19971;-83
2022/06/28 01:47:11;;;;;;;;;;;14.30;85.20;;;;;;5012246;28;19918;-83
2022/06/28 01:49:37;;;;;;;;;;;14.30;85.10;;;;;;4996463;28;19920;-83
2022/06/28 01:52:03;;;;;;;;;;;14.20;85.10;;;;;;4995936;28;19921;-83
2022/06/28 01:54:28;;;;;;;;;;;14.20;85.10;;;;;;4991156;28;20036;-81
2022/06/28 01:56:54;;;;;;;;;;;14.20;85.20;;;;;;4999750;28;19921;-82
2022/06/28 01:59:20;;;;;;;;;;;14.20;85.00;;;;;;5014730;28;19977;-82
2022/06/28 02:01:45;;;;;;;;;;;14.10;85.00;;;;;;4990790;28;20005;-83
2022/06/28 02:04:21;;;;;;;;;;;14.10;85.10;;;;;;4995929;28;19931;-82
2022/06/28 02:06:47;;;;;;;;;;;14.10;85.20;;;;;;4989463;28;20303;-82
2022/06/28 02:09:12;;;;;;;;;;;14.10;85.30;;;;;;5009035;28;19920;-82
2022/06/28 02:11:38;;;;;;;;;;;14.10;85.50;;;;;;4989686;28;20307;-82
2022/06/28 02:14:04;;;;;;;;;;;14.10;85.60;;;;;;4994379;28;19920;-83
2022/06/28 02:16:30;;;;;;;;;;;14.00;85.90;;;;;;4991669;28;20279;-81
2022/06/28 02:18:55;;;;;;;;;;;14.00;85.70;;;;;;5011630;28;20447;-81
2022/06/28 02:21:21;;;;;;;;;;;14.10;85.70;;;;;;4995658;28;19921;-82
2022/06/28 02:23:46;;;;;;;;;;;14.00;86.10;;;;;;4994649;28;19917;-82
2022/06/28 02:26:13;;;;;;;;;;;14.10;86.20;;;;;;4996500;28;20321;-82
2022/06/28 02:28:39;;;;;;;;;;;14.00;86.20;;;;;;5003657;28;19914;-82
2022/06/28 02:31:12;;;;;;;;;;;14.00;86.30;;;;;;4990810;28;19921;-82
2022/06/28 02:33:38;;;;;;;;;;;14.00;86.40;;;;;;5013365;28;19920;-82
2022/06/28 02:41:32;;;;;;;;;;;14.20;86.10;;;;;;5032503;28;20087;-81
2022/06/28 02:43:57;;;;;;;;;;;14.10;85.90;;;;;;5023818;28;20412;-83
2022/06/28 02:46:23;;;;;;;;;;;14.20;85.80;;;;;;4995717;28;20300;-83
2022/06/28 02:48:48;;;;;;;;;;;14.20;85.90;;;;;;4995799;28;19921;-81
2022/06/28 02:51:13;;;;;;;;;;;14.30;85.90;;;;;;4993237;28;20436;-83
2022/06/28 02:53:39;;;;;;;;;;;14.20;85.30;;;;;;4995356;28;20242;-83
2022/06/28 02:56:05;;;;;;;;;;;14.30;85.20;;;;;;4997851;28;20266;-82
2022/06/28 02:58:30;;;;;;;;;;;14.30;85.20;;;;;;4995515;28;19961;-82
2022/06/28 03:00:56;;;;;;;;;;;14.30;85.00;;;;;;4994212;28;19920;-82
2022/06/28 03:03:21;;;;;;;;;;;14.30;85.20;;;;;;5000701;28;20139;-82
2022/06/28 03:05:47;;;;;;;;;;;14.20;85.00;;;;;;5009191;28;19918;-81
2022/06/28 03:08:12;;;;;;;;;;;14.20;85.30;;;;;;5012882;28;19945;-81
2022/06/28 03:10:38;;;;;;;;;;;14.10;85.30;;;;;;5009746;28;20284;-82
2022/06/28 03:13:03;;;;;;;;;;;14.10;85.30;;;;;;5008066;28;20043;-81
2022/06/28 03:15:30;;;;;;;;;;;14.10;85.30;;;;;;5009270;28;19916;-82
2022/06/28 03:17:55;;;;;;;;;;;14.10;85.50;;;;;;5010838;28;19913;-81
2022/06/28 03:20:21;;;;;;;;;;;14.10;85.30;;;;;;5011264;28;20438;-81
2022/06/28 03:22:46;;;;;;;;;;;14.10;85.00;;;;;;4994070;28;20403;-81
2022/06/28 03:25:11;;;;;;;;;;;14.10;85.10;;;;;;5012377;28;20275;-81
2022/06/28 03:27:37;;;;;;;;;;;14.00;85.00;;;;;;4995908;28;19940;-82
2022/06/28 03:30:03;;;;;;;;;;;14.00;85.00;;;;;;4994209;28;19922;-81
2022/06/28 03:32:28;;;;;;;;;;;14.10;84.90;;;;;;4997183;28;19914;-82
2022/06/28 03:34:54;;;;;;;;;;;14.10;84.80;;;;;;4994658;28;19921;-82
2022/06/28 03:37:20;;;;;;;;;;;14.00;84.80;;;;;;4992025;28;19953;-80
2022/06/28 03:39:45;;;;;;;;;;;14.00;84.80;;;;;;5006779;28;20004;-82
2022/06/28 03:42:11;;;;;;;;;;;14.00;84.90;;;;;;4993479;28;20261;-82
2022/06/28 03:44:36;;;;;;;;;;;13.90;85.30;;;;;;4992625;28;19930;-83
2022/06/28 03:47:02;;;;;;;;;;;13.90;85.40;;;;;;5013966;28;20032;-82
2022/06/28 03:49:28;;;;;;;;;;;13.80;85.60;;;;;;4994913;28;20384;-84
2022/06/28 03:51:53;;;;;;;;;;;13.80;85.50;;;;;;4996386;28;19917;-82
2022/06/28 03:54:19;;;;;;;;;;;13.80;85.70;;;;;;5019358;28;19908;-81
2022/06/28 03:56:44;;;;;;;;;;;13.70;85.80;;;;;;4996521;28;20016;-82
2022/06/28 03:59:09;;;;;;;;;;;13.70;85.80;;;;;;5015356;28;19928;-83
2022/06/28 04:01:35;;;;;;;;;;;13.80;85.90;;;;;;5015064;28;19929;-83
2022/06/28 04:04:00;;;;;;;;;;;13.70;86.00;;;;;;5010165;28;19960;-84
2022/06/28 04:06:26;;;;;;;;;;;13.80;86.10;;;;;;5009644;28;19928;-84
2022/06/28 04:08:52;;;;;;;;;;;13.80;86.10;;;;;;4994951;28;19921;-83
2022/06/28 04:11:17;;;;;;;;;;;13.90;86.20;;;;;;5012090;28;19924;-82
2022/06/28 04:13:47;;;;;;;;;;;13.80;86.50;;;;;;4996187;28;19913;-83
2022/06/28 04:16:13;;;;;;;;;;;13.80;86.40;;;;;;4998019;28;20028;-83
2022/06/28 04:18:39;;;;;;;;;;;13.90;86.20;;;;;;4993453;28;19914;-82
2022/06/28 04:21:05;;;;;;;;;;;14.00;86.30;;;;;;4988819;28;20024;-85
2022/06/28 04:23:31;;;;;;;;;;;14.00;86.20;;;;;;4994546;28;19917;-85
2022/06/28 04:25:56;;;;;;;;;;;14.00;85.80;;;;;;4994066;28;19925;-85
2022/06/28 04:28:22;;;;;;;;;;;14.10;85.90;;;;;;5022842;28;19918;-84
2022/06/28 04:30:47;;;;;;;;;;;14.10;85.30;;;;;;4999543;28;19914;-87
2022/06/28 04:33:13;;;;;;;;;;;14.20;85.60;;;;;;4998705;28;20379;-88
2022/06/28 04:35:38;;;;;;;;;;;14.30;85.40;;;;;;5021098;23;20276;-80
2022/06/28 04:38:04;;;;;;;;;;;14.30;85.20;;;;;;5015453;28;19921;-80
2022/06/28 04:40:29;;;;;;;;;;;14.40;84.80;;;;;;5002597;28;19914;-82
2022/06/28 04:42:55;;;;;;;;;;;14.50;84.70;;;;;;5004263;28;19920;-81
2022/06/28 04:45:20;;;;;;;;;;;14.70;84.00;;;;;;5018702;28;19922;-81
2022/06/28 04:47:47;;;;;;;;;;;14.60;84.30;;;;;;5024836;28;19944;-81
2022/06/28 04:50:12;;;;;;;;;;;14.60;84.10;;;;;;5023328;28;20375;-84
2022/06/28 04:52:38;;;;;;;;;;;14.70;83.90;;;;;;5019633;28;19948;-82
2022/06/28 04:55:03;;;;;;;;;;;14.80;83.80;;;;;;5022351;28;19924;-81
2022/06/28 04:57:29;;;;;;;;;;;14.80;84.00;;;;;;5024992;28;20007;-81
2022/06/28 04:59:54;;;;;;;;;;;14.90;83.60;;;;;;5018277;28;20269;-80
2022/06/28 05:02:20;;;;;;;;;;;14.80;83.50;;;;;;5026506;28;20348;-81
2022/06/28 05:04:46;;;;;;;;;;;14.90;83.70;;;;;;5024813;28;19913;-79
2022/06/28 05:07:11;;;;;;;;;;;14.90;83.40;;;;;;5022702;28;19925;-80
2022/06/28 05:09:37;;;;;;;;;;;15.00;83.40;;;;;;5023381;28;19917;-81
2022/06/28 05:12:02;;;;;;;;;;;15.10;83.10;;;;;;5020793;28;19921;-81
2022/06/28 05:14:28;;;;;;;;;;;15.10;83.10;;;;;;5039214;28;19920;-80
2022/06/28 05:16:53;;;;;;;;;;;15.10;82.90;;;;;;5033353;28;19923;-80
2022/06/28 05:19:19;;;;;;;;;;;15.30;83.20;;;;;;5026423;28;19913;-82
2022/06/28 05:21:44;;;;;;;;;;;15.20;83.00;;;;;;5032777;28;20020;-81
2022/06/28 05:24:10;;;;;;;;;;;15.30;83.30;;;;;;5030184;28;19919;-81
2022/06/28 05:26:35;;;;;;;;;;;15.40;83.00;;;;;;5030605;28;19968;-82
2022/06/28 05:29:01;;;;;;;;;;;15.50;82.90;;;;;;5017733;28;20016;-81
2022/06/28 05:31:26;;;;;;;;;;;15.50;82.80;;;;;;5033354;28;19935;-82
2022/06/28 05:33:52;;;;;;;;;;;15.60;82.80;;;;;;5032805;28;19913;-82
2022/06/28 05:36:17;;;;;;;;;;;15.70;82.70;;;;;;5036346;28;19917;-82
2022/06/28 05:38:43;;;;;;;;;;;15.90;82.20;;;;;;5022765;28;19921;-81
2022/06/28 05:41:09;;;;;;;;;;;15.80;82.50;;;;;;5029173;28;19944;-80
2022/06/28 05:43:35;;;;;;;;;;;15.90;82.50;;;;;;5021910;28;19921;-82
2022/06/28 05:46:00;;;;;;;;;;;15.90;82.10;;;;;;5025211;28;20003;-81
2022/06/28 05:48:26;;;;;;;;;;;16.00;81.50;;;;;;5030661;28;19951;-82
2022/06/28 05:50:52;;;;;;;;;;;16.00;81.50;;;;;;5027275;28;20020;-81
2022/06/28 05:53:17;;;;;;;;;;;16.00;81.40;;;;;;5032359;28;19920;-81
2022/06/28 05:55:43;;;;;;;;;;;16.20;81.30;;;;;;5025239;28;19917;-81
2022/06/28 05:58:08;;;;;;;;;;;16.10;81.40;;;;;;5030185;28;19967;-81
2022/06/28 06:00:37;;;;;;;;;;;16.40;81.40;;;;;;5025824;28;20863;-83
2022/06/28 06:03:03;;;;;;;;;;;16.50;80.40;;;;;;5031277;28;20380;-82
2022/06/28 06:05:28;;;;;;;;;;;16.50;80.10;;;;;;5018766;28;19956;-79
2022/06/28 06:07:54;;;;;;;;;;;16.40;80.20;;;;;;5019252;28;19976;-80
2022/06/28 06:10:19;;;;;;;;;;;16.50;80.30;;;;;;5019119;28;19914;-81
2022/06/28 06:12:45;;;;;;;;;;;16.50;79.40;;;;;;5024990;28;19999;-82
2022/06/28 06:15:10;;;;;;;;;;;16.50;79.10;;;;;;5027511;28;19998;-83
2022/06/28 06:17:36;;;;;;;;;;;16.60;79.00;;;;;;5020667;28;19960;-80
2022/06/28 06:20:02;;;;;;;;;;;16.60;78.70;;;;;;5023403;28;20355;-82
2022/06/28 06:22:28;;;;;;;;;;;16.60;79.00;;;;;;5031797;28;19909;-81
2022/06/28 06:24:54;;;;;;;;;;;16.80;79.40;;;;;;5023541;28;20300;-80
2022/06/28 06:27:19;;;;;;;;;;;16.90;78.20;;;;;;5022312;28;20008;-81
2022/06/28 06:29:45;;;;;;;;;;;17.00;77.40;;;;;;5025661;28;20549;-81
2022/06/28 06:32:10;;;;;;;;;;;17.10;77.90;;;;;;5029689;28;19913;-80
2022/06/28 06:34:35;;;;;;;;;;;17.20;76.70;;;;;;5018992;28;19941;-82
2022/06/28 06:37:01;;;;;;;;;;;17.10;76.60;;;;;;5020976;28;20363;-80
2022/06/28 06:39:27;;;;;;;;;;;17.30;76.80;;;;;;5025731;28;19947;-81
2022/06/28 06:41:52;;;;;;;;;;;17.30;76.00;;;;;;5022287;28;19913;-79
2022/06/28 06:44:18;;;;;;;;;;;17.40;76.20;;;;;;5024868;28;19917;-80
2022/06/28 06:46:44;;;;;;;;;;;17.40;75.90;;;;;;5027310;28;20291;-78
2022/06/28 06:49:09;;;;;;;;;;;17.40;75.20;;;;;;5043787;28;19949;-79
2022/06/28 06:51:35;;;;;;;;;;;17.40;75.10;;;;;;5034117;28;19942;-80
2022/06/28 06:54:00;;;;;;;;;;;17.40;75.10;;;;;;5029532;28;19913;-80
2022/06/28 06:56:26;;;;;;;;;;;17.40;75.20;;;;;;5027126;28;20172;-81
2022/06/28 06:58:51;;;;;;;;;;;17.60;74.20;;;;;;5024813;28;19948;-82
2022/06/28 07:01:17;;;;;;;;;;;17.60;72.80;;;;;;5033436;28;19975;-80
2022/06/28 07:03:44;;;;;;;;;;;17.60;72.50;;;;;;5029467;28;19914;-81
2022/06/28 07:06:13;;;;;;;;;;;17.60;72.40;;;;;;5025172;28;20346;-79
2022/06/28 07:08:39;;;;;;;;;;;17.70;70.00;;;;;;5030806;28;19913;-80
2022/06/28 07:11:05;;;;;;;;;;;17.80;70.30;;;;;;5021379;28;19921;-79
2022/06/28 07:13:30;;;;;;;;;;;17.90;71.60;;;;;;5029215;28;20334;-80
2022/06/28 07:15:56;;;;;;;;;;;17.90;69.40;;;;;;5024047;28;19913;-79
2022/06/28 07:18:21;;;;;;;;;;;17.90;69.10;;;;;;5028318;28;19936;-80
2022/06/28 07:20:47;;;;;;;;;;;18.00;68.10;;;;;;5022348;28;20006;-81
2022/06/28 07:23:12;;;;;;;;;;;18.10;66.40;;;;;;5021468;28;19917;-80
2022/06/28 07:25:38;;;;;;;;;;;18.10;67.90;;;;;;5017440;28;20000;-79
2022/06/28 07:28:03;;;;;;;;;;;18.10;67.50;;;;;;5026301;28;19924;-81
2022/06/28 07:30:29;;;;;;;;;;;18.20;67.10;;;;;;5025352;28;19919;-80
2022/06/28 07:32:54;;;;;;;;;;;18.20;66.20;;;;;;5019970;28;19917;-81
2022/06/28 07:35:24;;;;;;;;;;;18.20;65.90;;;;;;5027927;28;19943;-82
2022/06/28 07:37:50;;;;;;;;;;;18.20;65.90;;;;;;5029970;28;19967;-82
2022/06/28 07:40:15;;;;;;;;;;;18.30;66.90;;;;;;5042750;28;19928;-81
2022/06/28 07:42:41;;;;;;;;;;;18.40;66.50;;;;;;5023056;28;19913;-84
2022/06/28 07:45:06;;;;;;;;;;;18.40;65.70;;;;;;5022198;28;19928;-78
2022/06/28 07:47:32;;;;;;;;;;;18.50;65.70;;;;;;5025653;28;19917;-81
2022/06/28 07:52:42;;;;;;;;;;;18.60;65.90;;;;;;5033686;28;20332;-81
2022/06/28 07:55:08;;;;;;;;;;;18.50;65.60;;;;;;5026625;28;19917;-80
2022/06/28 07:57:33;;;;;;;;;;;18.60;65.00;;;;;;5025653;28;19913;-81
2022/06/28 07:59:59;;;;;;;;;;;18.60;65.80;;;;;;5023897;28;19913;-80
2022/06/28 08:02:24;;;;;;;;;;;18.80;63.60;;;;;;5023319;28;19953;-80
2022/06/28 08:04:50;;;;;;;;;;;18.90;63.90;;;;;;5028921;28;19955;-80
2022/06/28 08:07:15;;;;;;;;;;;18.90;63.90;;;;;;5032508;28;20336;-80
2022/06/28 08:09:41;;;;;;;;;;;18.90;62.70;;;;;;5027105;28;20284;-80
2022/06/28 08:12:07;;;;;;;;;;;18.90;63.60;;;;;;5021766;28;20490;-80
2022/06/28 08:14:32;;;;;;;;;;;18.80;64.30;;;;;;5028143;28;20372;-80
2022/06/28 08:16:58;;;;;;;;;;;18.90;63.90;;;;;;5027407;28;19967;-80
2022/06/28 08:19:24;;;;;;;;;;;19.00;62.90;;;;;;5031773;28;19913;-80
2022/06/28 08:21:49;;;;;;;;;;;18.90;63.50;;;;;;5027344;28;20040;-82
2022/06/28 08:24:15;;;;;;;;;;;19.10;63.30;;;;;;5027194;28;20449;-80
2022/06/28 08:26:42;;;;;;;;;;;19.10;63.30;;;;;;5027647;28;19925;-80
2022/06/28 08:29:12;;;;;;;;;;;19.40;61.60;;;;;;5022678;28;19924;-81
2022/06/28 08:31:37;;;;;;;;;;;19.60;61.70;;;;;;5031183;28;19992;-80
2022/06/28 08:34:04;;;;;;;;;;;19.90;61.50;;;;;;5041758;28;20013;-80
2022/06/28 08:36:29;;;;;;;;;;;20.00;62.00;;;;;;5046690;28;19952;-81
2022/06/28 08:38:54;;;;;;;;;;;20.00;60.80;;;;;;5032914;28;20328;-80
2022/06/28 08:41:21;;;;;;;;;;;19.90;59.40;;;;;;5025741;28;20304;-80
2022/06/28 08:43:46;;;;;;;;;;;19.90;60.00;;;;;;5032214;28;19913;-81
2022/06/28 08:46:12;;;;;;;;;;;19.80;61.30;;;;;;5028766;28;20386;-79
2022/06/28 08:48:58;;;;;;;;;;;20.00;60.70;;;;;;5025901;28;19916;-81
2022/06/28 08:51:30;;;;;;;;;;;20.00;58.10;;;;;;5025449;28;19964;-80
2022/06/28 08:53:58;;;;;;;;;;;20.00;59.50;;;;;;5026957;28;19968;-80
2022/06/28 08:56:24;;;;;;;;;;;20.10;58.60;;;;;;5030950;28;20468;-82
2022/06/28 08:58:49;;;;;;;;;;;20.10;60.40;;;;;;5025234;28;19982;-80
2022/06/28 09:01:15;;;;;;;;;;;19.90;60.30;;;;;;5020474;28;19913;-81
2022/06/28 09:03:40;;;;;;;;;;;19.80;59.90;;;;;;5031083;28;19999;-82
2022/06/28 09:06:06;;;;;;;;;;;19.80;57.20;;;;;;5033850;28;19921;-82
2022/06/28 09:08:32;;;;;;;;;;;19.80;58.40;;;;;;5028724;28;20004;-80
2022/06/28 09:10:57;;;;;;;;;;;20.10;60.20;;;;;;5029709;28;19951;-81
2022/06/28 09:13:23;;;;;;;;;;;20.20;60.80;;;;;;5034495;28;20379;-82
2022/06/28 09:15:48;;;;;;;;;;;20.50;60.50;;;;;;5031636;28;20412;-82
2022/06/28 09:18:14;;;;;;;;;;;20.60;60.60;;;;;;5027446;28;19936;-80
2022/06/28 09:20:40;;;;;;;;;;;20.60;60.20;;;;;;5031462;28;19928;-81
2022/06/28 09:23:26;;;;;;;;;;;20.80;59.50;;;;;;5024399;28;19913;-82
2022/06/28 09:25:52;;;;;;;;;;;20.80;60.30;;;;;;5031103;28;19917;-81
2022/06/28 09:28:28;;;;;;;;;;;20.80;60.90;;;;;;5030002;28;20012;-82
2022/06/28 09:31:13;;;;;;;;;;;21.10;60.20;;;;;;5028749;28;19913;-81
2022/06/28 09:33:39;;;;;;;;;;;21.40;56.80;;;;;;5030863;28;20305;-81
2022/06/28 09:36:04;;;;;;;;;;;21.20;56.20;;;;;;5024800;28;19921;-82
2022/06/28 09:38:32;;;;;;;;;;;21.10;56.00;;;;;;5023318;28;20320;-80
2022/06/28 09:40:58;;;;;;;;;;;21.20;56.20;;;;;;5030952;28;19963;-82
2022/06/28 09:43:29;;;;;;;;;;;21.10;57.90;;;;;;5027052;28;20252;-82
2022/06/28 09:45:55;;;;;;;;;;;21.10;58.30;;;;;;5028377;28;19928;-80
2022/06/28 09:48:21;;;;;;;;;;;21.20;56.30;;;;;;5026271;28;19955;-82
2022/06/28 09:50:47;;;;;;;;;;;21.20;56.80;;;;;;5020294;28;20245;-87
2022/06/28 09:53:17;;;;;;;;;;;21.30;58.00;;;;;;5032008;28;19914;-80
2022/06/28 09:55:43;;;;;;;;;;;21.40;58.30;;;;;;5023558;28;19917;-80
2022/06/28 09:58:08;;;;;;;;;;;21.50;55.30;;;;;;5030488;28;19921;-81
2022/06/28 10:00:37;;;;;;;;;;;21.60;54.40;;;;;;5025188;28;19921;-80
2022/06/28 10:03:03;;;;;;;;;;;21.90;55.60;;;;;;5023724;28;20372;-80
2022/06/28 10:05:29;;;;;;;;;;;21.90;54.60;;;;;;5023016;28;19913;-80
2022/06/28 10:07:54;;;;;;;;;;;21.70;54.80;;;;;;5026935;28;20357;-86
2022/06/28 10:10:23;;;;;;;;;;;21.60;53.60;;;;;;5029172;28;20046;-82
2022/06/28 10:15:34;;;;;;;;;;;21.80;53.60;;;;;;5028362;28;20319;-82
2022/06/28 10:18:14;;;;;;;;;;;22.00;52.10;;;;;;5027973;28;19922;-86
2022/06/28 10:20:40;;;;;;;;;;;22.20;50.60;;;;;;5036877;28;19955;-82
2022/06/28 10:23:22;;;;;;;;;;;22.20;52.70;;;;;;5028390;28;19913;-81
2022/06/28 10:26:00;;;;;;;;;;;22.30;51.80;;;;;;5028150;28;19924;-81
2022/06/28 10:28:26;;;;;;;;;;;22.50;49.60;;;;;;5027913;28;19917;-80
2022/06/28 10:31:11;;;;;;;;;;;22.70;50.10;;;;;;5019994;28;19921;-82
2022/06/28 10:33:41;;;;;;;;;;;22.70;50.90;;;;;;5028063;28;20417;-80
2022/06/28 10:36:13;;;;;;;;;;;23.00;49.70;;;;;;5038622;28;19917;-80
2022/06/28 10:38:58;;;;;;;;;;;23.20;50.00;;;;;;5017904;28;20333;-80
2022/06/28 10:41:35;;;;;;;;;;;23.50;48.90;;;;;;5015819;28;20289;-81
2022/06/28 10:44:27;;;;;;;;;;;23.40;48.50;;;;;;5020461;28;19917;-80
2022/06/28 10:47:09;;;;;;;;;;;23.30;48.40;;;;;;5011017;28;19932;-82
2022/06/28 10:49:50;;;;;;;;;;;23.30;49.60;;;;;;5020356;28;19931;-81
2022/06/28 10:52:17;;;;;;;;;;;23.40;49.20;;;;;;5021444;28;19917;-81
2022/06/28 10:55:03;;;;;;;;;;;23.40;47.40;;;;;;5026159;28;19912;-81
2022/06/28 10:57:32;;;;;;;;;;;23.30;48.00;;;;;;5008374;28;19913;-81
2022/06/28 11:00:00;;;;;;;;;;;23.10;46.90;;;;;;5021382;28;19951;-82
2022/06/28 11:02:46;;;;;;;;;;;23.00;46.00;;;;;;5028915;28;19914;-80
2022/06/28 11:05:12;;;;;;;;;;;23.10;46.20;;;;;;5012165;28;19995;-80
2022/06/28 11:07:39;;;;;;;;;;;23.40;46.90;;;;;;5027605;28;20391;-81
2022/06/28 11:10:09;;;;;;;;;;;23.50;45.30;;;;;;5030203;28;19941;-80
2022/06/28 11:12:38;;;;;;;;;;;23.50;44.70;;;;;;5023429;28;19956;-81
2022/06/28 11:15:05;;;;;;;;;;;23.30;45.10;;;;;;5027933;28;19951;-81
2022/06/28 11:17:34;;;;;;;;;;;23.20;44.90;;;;;;5028159;28;19964;-82
2022/06/28 11:20:04;;;;;;;;;;;23.00;46.20;;;;;;5017668;28;19913;-79
2022/06/28 11:22:31;;;;;;;;;;;23.00;45.50;;;;;;5026660;28;19913;-80
2022/06/28 11:24:58;;;;;;;;;;;23.00;45.40;;;;;;5022536;28;19976;-80
2022/06/28 11:27:24;;;;;;;;;;;22.80;46.20;;;;;;5030049;28;19935;-82
2022/06/28 11:30:02;;;;;;;;;;;22.50;46.70;;;;;;5021215;28;19920;-82
2022/06/28 11:32:32;;;;;;;;;;;22.10;47.80;;;;;;5018559;28;19917;-80
2022/06/28 11:34:59;;;;;;;;;;;22.10;49.20;;;;;;5029902;28;19932;-80
2022/06/28 11:37:25;;;;;;;;;;;22.00;47.70;;;;;;5016953;28;19945;-79
2022/06/28 11:39:52;;;;;;;;;;;22.00;47.80;;;;;;5016254;28;19917;-82
2022/06/28 11:42:17;;;;;;;;;;;21.90;47.40;;;;;;5025760;28;19928;-85
2022/06/28 11:44:43;;;;;;;;;;;21.80;48.60;;;;;;5029979;28;20282;-80
2022/06/28 11:47:09;;;;;;;;;;;22.00;47.60;;;;;;5026690;28;19951;-78
2022/06/28 11:49:35;;;;;;;;;;;22.00;48.00;;;;;;5025287;28;19921;-79
2022/06/28 11:52:01;;;;;;;;;;;22.40;47.20;;;;;;5032292;28;20416;-80
2022/06/28 11:54:26;;;;;;;;;;;22.50;47.00;;;;;;5033323;28;19967;-82
2022/06/28 11:56:53;;;;;;;;;;;22.50;47.80;;;;;;5027556;28;19917;-80
2022/06/28 11:59:19;;;;;;;;;;;22.90;48.00;;;;;;5030014;28;19917;-82
2022/06/28 12:01:45;;;;;;;;;;;23.00;47.00;;;;;;5030237;28;19956;-81
2022/06/28 12:04:19;;;;;;;;;;;23.10;44.20;;;;;;5024574;28;19913;-81
2022/06/28 12:06:44;;;;;;;;;;;23.00;44.60;;;;;;5024804;28;19975;-81
2022/06/28 12:09:10;;;;;;;;;;;23.10;45.00;;;;;;5025715;28;19913;-79
2022/06/28 12:11:39;;;;;;;;;;;23.10;44.40;;;;;;5031221;28;19920;-80
2022/06/28 12:14:15;;;;;;;;;;;23.00;45.00;;;;;;5033033;28;19922;-81
2022/06/28 12:16:44;;;;;;;;;;;23.00;45.50;;;;;;5015225;28;19952;-80
2022/06/28 12:19:12;;;;;;;;;;;22.80;46.10;;;;;;5039491;28;19920;-82
2022/06/28 12:21:38;;;;;;;;;;;22.60;47.40;;;;;;5031548;28;19917;-82
2022/06/28 12:24:04;;;;;;;;;;;22.40;48.90;;;;;;5036669;28;19909;-82
2022/06/28 12:26:40;;;;;;;;;;;22.40;46.30;;;;;;5023477;28;20008;-80
2022/06/28 12:29:06;;;;;;;;;;;22.20;46.60;;;;;;5026088;28;19917;-81
2022/06/28 12:31:32;;;;;;;;;;;22.20;48.00;;;;;;5040906;28;20016;-79
2022/06/28 12:33:57;;;;;;;;;;;22.10;48.60;;;;;;5024207;28;19929;-80
2022/06/28 12:36:23;;;;;;;;;;;22.20;50.00;;;;;;5027076;28;19928;-80
2022/06/28 12:38:48;;;;;;;;;;;22.20;49.10;;;;;;5025267;28;19917;-81
2022/06/28 12:41:13;;;;;;;;;;;22.40;47.70;;;;;;5024161;28;20725;-80
2022/06/28 12:43:39;;;;;;;;;;;22.50;46.10;;;;;;5029566;28;20433;-81
2022/06/28 12:46:04;;;;;;;;;;;22.60;48.20;;;;;;5024022;28;19913;-82
2022/06/28 12:48:32;;;;;;;;;;;22.70;44.80;;;;;;5025746;28;19913;-80
2022/06/28 12:50:58;;;;;;;;;;;22.90;45.20;;;;;;5034535;28;20394;-82
2022/06/28 12:53:23;;;;;;;;;;;23.10;45.50;;;;;;5034935;28;19917;-80
2022/06/28 12:55:49;;;;;;;;;;;23.10;45.00;;;;;;5019765;28;19994;-80
2022/06/28 12:58:15;;;;;;;;;;;23.10;43.30;;;;;;5026795;28;19929;-81
2022/06/28 13:00:41;;;;;;;;;;;23.10;44.20;;;;;;5032376;28;19913;-81
2022/06/28 13:03:06;;;;;;;;;;;23.30;42.80;;;;;;5027751;28;19917;-80
2022/06/28 13:05:32;;;;;;;;;;;23.40;42.40;;;;;;5026629;28;19913;-81
2022/06/28 13:07:57;;;;;;;;;;;23.60;42.20;;;;;;5022758;28;19921;-84
2022/06/28 13:10:23;;;;;;;;;;;23.60;42.00;;;;;;5029859;28;19999;-84
2022/06/28 13:12:49;;;;;;;;;;;23.80;41.00;;;;;;5039374;28;20059;-80
2022/06/28 13:15:14;;;;;;;;;;;23.60;42.80;;;;;;5017262;28;19913;-81
2022/06/28 13:17:41;;;;;;;;;;;23.60;42.40;;;;;;5030667;28;19959;-81
2022/06/28 13:20:07;;;;;;;;;;;23.50;41.90;;;;;;5028303;28;20094;-80
2022/06/28 13:22:32;;;;;;;;;;;23.40;42.00;;;;;;5040489;28;19910;-82
2022/06/28 13:24:58;;;;;;;;;;;23.40;40.70;;;;;;5034045;28;19913;-82
2022/06/28 13:27:23;;;;;;;;;;;23.30;42.20;;;;;;5021462;28;20321;-82
2022/06/28 13:29:49;;;;;;;;;;;23.30;40.60;;;;;;5022631;28;19956;-81
2022/06/28 13:32:14;;;;;;;;;;;23.20;41.10;;;;;;5019189;28;19989;-81
2022/06/28 13:34:39;;;;;;;;;;;23.30;41.40;;;;;;5025490;28;19941;-81
2022/06/28 13:37:05;;;;;;;;;;;23.40;41.00;;;;;;5032200;28;19985;-82
2022/06/28 13:39:31;;;;;;;;;;;23.50;40.40;;;;;;5019323;28;19925;-82
2022/06/28 13:41:56;;;;;;;;;;;23.60;41.00;;;;;;5020724;28;20686;-80
2022/06/28 13:44:22;;;;;;;;;;;23.50;42.00;;;;;;5020310;28;19914;-79
2022/06/28 13:46:47;;;;;;;;;;;23.60;40.40;;;;;;5018038;28;19925;-81
2022/06/28 13:49:13;;;;;;;;;;;23.80;40.40;;;;;;5012893;28;20000;-79
2022/06/28 13:51:39;;;;;;;;;;;24.00;39.30;;;;;;5018461;28;19928;-80
2022/06/28 13:54:04;;;;;;;;;;;24.20;41.00;;;;;;5018695;28;19913;-82
2022/06/28 13:56:31;;;;;;;;;;;24.10;41.00;;;;;;5015937;28;19917;-81
2022/06/28 13:58:56;;;;;;;;;;;24.20;41.70;;;;;;5012580;28;19956;-83
2022/06/28 14:01:22;;;;;;;;;;;24.30;41.80;;;;;;5018848;28;20475;-82
2022/06/28 14:03:48;;;;;;;;;;;24.30;43.20;;;;;;5021527;28;19933;-81
2022/06/28 14:06:13;;;;;;;;;;;24.30;43.80;;;;;;5023028;28;19917;-79
2022/06/28 14:08:39;;;;;;;;;;;24.10;43.00;;;;;;5021881;28;19970;-79
2022/06/28 14:11:04;;;;;;;;;;;24.30;42.00;;;;;;5002228;28;20392;-79
2022/06/28 14:13:30;;;;;;;;;;;24.40;41.20;;;;;;5004370;28;19987;-79
2022/06/28 14:15:55;;;;;;;;;;;24.20;42.00;;;;;;5013312;28;20008;-78
2022/06/28 14:18:21;;;;;;;;;;;24.10;43.20;;;;;;5025413;28;19917;-78
2022/06/28 14:20:47;;;;;;;;;;;24.10;44.60;;;;;;5010646;28;20208;-80
2022/06/28 14:23:13;;;;;;;;;;;24.10;44.60;;;;;;5027670;28;19921;-80
2022/06/28 14:25:38;;;;;;;;;;;24.10;42.40;;;;;;5015979;28;19984;-79